createdAt,value
2023-03-31T00:01:19.693Z,99401.00
2023-03-31T00:03:47.677Z,99391.00
2023-03-31T00:06:19.176Z,99394.00
2023-03-31T00:08:52.289Z,99387.00
2023-03-31T00:11:21.854Z,99379.00
2023-03-31T00:13:49.784Z,99382.00
2023-03-31T00:16:17.735Z,99380.00
2023-03-31T00:18:47.813Z,99378.00
2023-03-31T00:21:34.144Z,99374.00
2023-03-31T00:24:05.028Z,99369.00
2023-03-31T00:26:34.343Z,99366.00
2023-03-31T00:29:02.783Z,99362.00
2023-03-31T00:31:30.829Z,99357.00
2023-03-31T00:33:59.201Z,99360.00
2023-03-31T00:36:28.609Z,99349.00
2023-03-31T00:39:02.824Z,99345.00
2023-03-31T00:41:31.549Z,99346.00
2023-03-31T00:44:24.863Z,99353.00
2023-03-31T00:47:08.128Z,99345.00
2023-03-31T00:49:45.654Z,99354.00
2023-03-31T00:52:23.150Z,99340.00
2023-03-31T00:54:57.098Z,99335.00
2023-03-31T00:57:26.392Z,99338.00
2023-03-31T00:59:58.286Z,99328.00
2023-03-31T01:02:26.883Z,99330.00
2023-03-31T01:05:02.578Z,99331.00
2023-03-31T01:07:36.352Z,99323.00
2023-03-31T01:10:05.475Z,99327.00
2023-03-31T01:12:35.441Z,99313.00
2023-03-31T01:15:04.704Z,99311.00
2023-03-31T01:17:32.890Z,99310.00
2023-03-31T01:20:14.010Z,99305.00
2023-03-31T01:23:03.363Z,99296.00
2023-03-31T01:25:51.433Z,99294.00
2023-03-31T01:28:34.140Z,99290.00
2023-03-31T01:31:34.739Z,99284.00
2023-03-31T01:34:39.450Z,99283.00
2023-03-31T01:37:43.152Z,99281.00
2023-03-31T01:40:44.037Z,99278.00
2023-03-31T01:43:25.515Z,99277.00
2023-03-31T01:46:21.943Z,99274.00
2023-03-31T01:49:06.930Z,99275.00
2023-03-31T01:52:00.750Z,99282.00
2023-03-31T01:55:10.719Z,99265.00
2023-03-31T01:57:42.106Z,99268.00
2023-03-31T02:00:14.400Z,99267.00
2023-03-31T02:02:50.452Z,99261.00
2023-03-31T02:05:21.217Z,99256.00
2023-03-31T02:07:53.208Z,99247.00
2023-03-31T02:10:22.182Z,99244.00
2023-03-31T02:12:51.625Z,99246.00
2023-03-31T02:15:27.351Z,99237.00
2023-03-31T02:17:57.134Z,99232.00
2023-03-31T02:20:26.415Z,99228.00
2023-03-31T02:22:56.589Z,99233.00
2023-03-31T02:25:31.426Z,99222.00
2023-03-31T02:28:04.892Z,99229.00
2023-03-31T02:30:54.596Z,99227.00
2023-03-31T02:33:22.420Z,99219.00
2023-03-31T02:35:50.568Z,99214.00
2023-03-31T02:38:18.854Z,99204.00
2023-03-31T02:40:46.986Z,99200.00
2023-03-31T02:43:15.018Z,99206.00
2023-03-31T02:45:47.062Z,99195.00
2023-03-31T02:48:21.519Z,99197.00
2023-03-31T02:51:07.802Z,99195.00
2023-03-31T02:54:18.872Z,99181.00
2023-03-31T02:57:19.445Z,99173.00
2023-03-31T02:59:58.028Z,99160.00
2023-03-31T03:02:49.107Z,99161.00
2023-03-31T03:05:35.049Z,99160.00
2023-03-31T03:08:55.831Z,99157.00
2023-03-31T03:11:53.325Z,99149.00
2023-03-31T03:14:33.474Z,99150.00
2023-03-31T03:17:08.506Z,99154.00
2023-03-31T03:19:36.543Z,99146.00
2023-03-31T03:22:05.570Z,99147.00
2023-03-31T03:24:34.673Z,99146.00
2023-03-31T03:27:02.780Z,99131.00
2023-03-31T03:29:31.060Z,99136.00
2023-03-31T03:31:59.051Z,99132.00
2023-03-31T03:34:27.275Z,99137.00
2023-03-31T03:36:55.092Z,99140.00
2023-03-31T03:39:23.147Z,99134.00
2023-03-31T03:41:51.252Z,99133.00
2023-03-31T03:44:19.296Z,99133.00
2023-03-31T03:46:47.263Z,99126.00
2023-03-31T03:49:15.242Z,99120.00
2023-03-31T03:51:43.073Z,99120.00
2023-03-31T03:54:13.567Z,99108.00
2023-03-31T03:56:41.521Z,99110.00
2023-03-31T03:59:09.588Z,99104.00
2023-03-31T04:02:04.945Z,99090.00
2023-03-31T04:04:57.421Z,99091.00
2023-03-31T04:07:25.834Z,99086.00
2023-03-31T04:09:55.839Z,99073.00
2023-03-31T04:12:23.842Z,99076.00
2023-03-31T04:14:51.879Z,99068.00
2023-03-31T04:17:19.702Z,99060.00
2023-03-31T04:19:50.946Z,99055.00
2023-03-31T04:22:20.993Z,99047.00
2023-03-31T04:24:52.947Z,99038.00
2023-03-31T04:27:21.302Z,99037.00
2023-03-31T04:29:54.986Z,99030.00
2023-03-31T04:32:23.445Z,99028.00
2023-03-31T04:34:51.400Z,99018.00
2023-03-31T04:37:19.342Z,99015.00
2023-03-31T04:39:50.877Z,99010.00
2023-03-31T04:42:18.910Z,98996.00
2023-03-31T04:44:46.609Z,98996.00
2023-03-31T04:47:14.461Z,98993.00
2023-03-31T04:49:42.428Z,98976.00
2023-03-31T04:52:10.570Z,98979.00
2023-03-31T04:54:38.516Z,98967.00
2023-03-31T04:57:06.668Z,98964.00
2023-03-31T04:59:34.953Z,98957.00
2023-03-31T05:02:02.984Z,98959.00
2023-03-31T05:04:30.946Z,98957.00
2023-03-31T05:06:59.238Z,98956.00
2023-03-31T05:09:27.382Z,98950.00
2023-03-31T05:11:55.314Z,98941.00
2023-03-31T05:14:23.216Z,98940.00
2023-03-31T05:16:51.854Z,98936.00
2023-03-31T05:19:19.759Z,98921.00
2023-03-31T05:21:47.725Z,98919.00
2023-03-31T05:24:15.813Z,98918.00
2023-03-31T05:26:48.569Z,98908.00
2023-03-31T05:29:17.190Z,98915.00
2023-03-31T05:31:48.079Z,98908.00
2023-03-31T05:34:16.443Z,98903.00
2023-03-31T05:36:44.513Z,98895.00
2023-03-31T05:39:12.378Z,98895.00
2023-03-31T05:41:43.397Z,98901.00
2023-03-31T05:44:11.771Z,98888.00
2023-03-31T05:46:39.715Z,98891.00
2023-03-31T05:49:08.027Z,98895.00
2023-03-31T05:51:36.454Z,98892.00
2023-03-31T05:54:04.584Z,98889.00
2023-03-31T05:56:32.344Z,98894.00
2023-03-31T05:59:01.601Z,98896.00
2023-03-31T06:01:30.250Z,98897.00
2023-03-31T06:03:58.100Z,98899.00
2023-03-31T06:06:26.344Z,98902.00
2023-03-31T06:08:54.383Z,98898.00
2023-03-31T06:11:23.428Z,98908.00
2023-03-31T06:13:51.666Z,98897.00
2023-03-31T06:16:20.432Z,98894.00
2023-03-31T06:18:48.465Z,98889.00
2023-03-31T06:21:17.868Z,98877.00
2023-03-31T06:23:46.323Z,98863.00
2023-03-31T06:26:16.551Z,98861.00
2023-03-31T06:28:45.707Z,98857.00
2023-03-31T06:31:15.987Z,98847.00
2023-03-31T06:33:44.620Z,98838.00
2023-03-31T06:36:15.041Z,98833.00
2023-03-31T06:38:43.284Z,98832.00
2023-03-31T06:41:13.852Z,98836.00
2023-03-31T06:43:41.948Z,98830.00
2023-03-31T06:46:10.272Z,98838.00
2023-03-31T06:48:38.677Z,98832.00
2023-03-31T06:51:07.741Z,98826.00
2023-03-31T06:53:36.019Z,98828.00
2023-03-31T06:56:05.057Z,98819.00
2023-03-31T06:58:33.613Z,98820.00
2023-03-31T07:01:04.346Z,98827.00
2023-03-31T07:03:33.417Z,98823.00
2023-03-31T07:06:01.778Z,98823.00
2023-03-31T07:08:29.787Z,98826.00
2023-03-31T07:11:01.743Z,98819.00
2023-03-31T07:13:30.240Z,98829.00
2023-03-31T07:15:58.583Z,98827.00
2023-03-31T07:18:35.117Z,98834.00
2023-03-31T07:21:05.717Z,98824.00
2023-03-31T07:23:35.870Z,98825.00
2023-03-31T07:26:04.066Z,98818.00
2023-03-31T07:28:32.602Z,98812.00
2023-03-31T07:31:00.580Z,98815.00
2023-03-31T07:33:28.507Z,98823.00
2023-03-31T07:36:10.088Z,98805.00
2023-03-31T07:38:40.304Z,98804.00
2023-03-31T07:41:12.603Z,98782.00
2023-03-31T07:43:40.889Z,98788.00
2023-03-31T07:46:16.259Z,98786.00
2023-03-31T07:48:44.532Z,98786.00
2023-03-31T07:51:13.309Z,98784.00
2023-03-31T07:53:41.065Z,98783.00
2023-03-31T07:56:09.175Z,98783.00
2023-03-31T07:58:37.111Z,98784.00
2023-03-31T08:01:05.311Z,98785.00
2023-03-31T08:03:34.604Z,98782.00
2023-03-31T08:06:02.539Z,98779.00
2023-03-31T08:08:30.475Z,98770.00
2023-03-31T08:10:58.324Z,98773.00
2023-03-31T08:13:26.271Z,98763.00
2023-03-31T08:15:54.107Z,98765.00
2023-03-31T08:18:22.882Z,98758.00
2023-03-31T08:20:51.781Z,98752.00
2023-03-31T08:23:19.881Z,98746.00
2023-03-31T08:25:48.191Z,98748.00
2023-03-31T08:28:16.030Z,98743.00
2023-03-31T08:30:44.140Z,98733.00
2023-03-31T08:33:19.458Z,98732.00
2023-03-31T08:35:47.321Z,98722.00
2023-03-31T08:38:17.582Z,98720.00
2023-03-31T08:40:45.482Z,98719.00
2023-03-31T08:43:17.395Z,98704.00
2023-03-31T08:45:48.120Z,98697.00
2023-03-31T08:48:26.439Z,98692.00
2023-03-31T08:51:22.074Z,98690.00
2023-03-31T08:54:08.286Z,98676.00
2023-03-31T08:56:39.522Z,98670.00
2023-03-31T08:59:13.233Z,98670.00
2023-03-31T09:01:55.624Z,98673.00
2023-03-31T09:04:59.568Z,98671.00
2023-03-31T09:07:39.398Z,98672.00
2023-03-31T09:10:29.197Z,98664.00
2023-03-31T09:13:05.049Z,98661.00
2023-03-31T09:15:54.506Z,98671.00
2023-03-31T09:18:35.973Z,98669.00
2023-03-31T09:21:16.068Z,98673.00
2023-03-31T09:24:04.883Z,98670.00
2023-03-31T09:26:59.760Z,98654.00
2023-03-31T09:29:31.820Z,98653.00
2023-03-31T09:32:17.165Z,98641.00
2023-03-31T09:34:50.411Z,98634.00
2023-03-31T09:37:18.219Z,98636.00
2023-03-31T09:39:46.373Z,98629.00
2023-03-31T09:42:14.899Z,98622.00
2023-03-31T09:44:49.917Z,98631.00
2023-03-31T09:47:22.259Z,98635.00
2023-03-31T09:49:53.753Z,98635.00
2023-03-31T09:52:32.402Z,98635.00
2023-03-31T09:55:02.608Z,98638.00
2023-03-31T09:57:39.659Z,98633.00
2023-03-31T10:00:16.811Z,98646.00
2023-03-31T10:02:53.079Z,98629.00
2023-03-31T10:05:27.532Z,98625.00
2023-03-31T10:08:32.668Z,98626.00
2023-03-31T10:11:03.899Z,98621.00
2023-03-31T10:13:50.932Z,98620.00
2023-03-31T10:16:50.638Z,98624.00
2023-03-31T10:19:28.081Z,98618.00
2023-03-31T10:22:01.408Z,98629.00
2023-03-31T10:24:41.283Z,98640.00
2023-03-31T10:27:26.595Z,98636.00
2023-03-31T10:30:02.704Z,98641.00
2023-03-31T10:32:36.619Z,98636.00
2023-03-31T10:35:32.258Z,98632.00
2023-03-31T10:38:06.289Z,98637.00
2023-03-31T10:40:36.575Z,98631.00
2023-03-31T10:43:16.698Z,98626.00
2023-03-31T10:45:49.738Z,98622.00
2023-03-31T10:48:31.711Z,98612.00
2023-03-31T10:51:26.207Z,98610.00
2023-03-31T10:53:56.224Z,98615.00
2023-03-31T10:56:50.768Z,98610.00
2023-03-31T10:59:30.109Z,98608.00
2023-03-31T11:02:05.088Z,98605.00
2023-03-31T11:05:25.647Z,98599.00
2023-03-31T11:08:20.169Z,98602.00
2023-03-31T11:10:58.909Z,98590.00
2023-03-31T11:13:41.806Z,98600.00
2023-03-31T11:16:19.724Z,98604.00
2023-03-31T11:18:56.531Z,98596.00
2023-03-31T11:21:46.347Z,98593.00
2023-03-31T11:24:26.880Z,98585.00
2023-03-31T11:27:16.820Z,98580.00
2023-03-31T11:29:48.086Z,98576.00
2023-03-31T11:32:47.868Z,98585.00
2023-03-31T11:35:35.939Z,98576.00
2023-03-31T11:38:41.407Z,98575.00
2023-03-31T11:41:13.864Z,98569.00
2023-03-31T11:43:45.556Z,98564.00
2023-03-31T11:46:23.380Z,98562.00
2023-03-31T11:48:51.337Z,98551.00
2023-03-31T11:51:26.171Z,98551.00
2023-03-31T11:53:56.824Z,98545.00
2023-03-31T11:56:28.687Z,98545.00
2023-03-31T11:58:59.399Z,98540.00
2023-03-31T12:01:38.102Z,98548.00
2023-03-31T12:04:16.539Z,98551.00
2023-03-31T12:06:46.783Z,98544.00
2023-03-31T12:09:24.609Z,98542.00
2023-03-31T12:12:09.368Z,98541.00
2023-03-31T12:14:50.482Z,98538.00
2023-03-31T12:17:20.822Z,98541.00
2023-03-31T12:20:10.827Z,98538.00
2023-03-31T12:22:45.851Z,98534.00
2023-03-31T12:25:16.139Z,98535.00
2023-03-31T12:27:49.740Z,98542.00
2023-03-31T12:30:34.783Z,98539.00
2023-03-31T12:33:07.877Z,98540.00
2023-03-31T12:35:35.767Z,98524.00
2023-03-31T12:38:09.621Z,98526.00
2023-03-31T12:40:59.406Z,98524.00
2023-03-31T12:43:59.078Z,98531.00
2023-03-31T12:46:33.040Z,98528.00
2023-03-31T12:49:12.917Z,98528.00
2023-03-31T12:52:06.983Z,98524.00
2023-03-31T12:54:43.436Z,98523.00
2023-03-31T12:57:20.111Z,98520.00
2023-03-31T13:00:12.803Z,98518.00
2023-03-31T13:02:42.369Z,98508.00
2023-03-31T13:05:38.594Z,98503.00
2023-03-31T13:08:10.850Z,98504.00
2023-03-31T13:10:58.504Z,98502.00
2023-03-31T13:13:27.679Z,98495.00
2023-03-31T13:15:57.315Z,98493.00
2023-03-31T13:18:25.919Z,98486.00
2023-03-31T13:23:34.377Z,98479.00
2023-03-31T13:26:02.980Z,98478.00
2023-03-31T13:28:42.490Z,98477.00
2023-03-31T13:31:16.172Z,98479.00
2023-03-31T13:33:57.602Z,98477.00
2023-03-31T13:36:34.856Z,98464.00
2023-03-31T13:39:21.624Z,98446.00
2023-03-31T13:42:08.104Z,98451.00
2023-03-31T13:44:44.055Z,98448.00
2023-03-31T13:47:31.141Z,98441.00
2023-03-31T13:50:20.233Z,98439.00
2023-03-31T13:53:17.989Z,98437.00
2023-03-31T13:56:09.466Z,98436.00
2023-03-31T13:59:06.340Z,98430.00
2023-03-31T14:02:00.320Z,98438.00
2023-03-31T14:04:56.026Z,98434.00
2023-03-31T14:07:54.931Z,98435.00
2023-03-31T14:10:35.360Z,98434.00
2023-03-31T14:13:17.039Z,98429.00
2023-03-31T14:15:52.188Z,98433.00
2023-03-31T14:18:28.662Z,98437.00
2023-03-31T14:21:21.442Z,98428.00
2023-03-31T14:23:51.216Z,98421.00
2023-03-31T14:27:06.873Z,98415.00
2023-03-31T14:29:52.914Z,98420.00
2023-03-31T14:32:39.229Z,98416.00
2023-03-31T14:35:33.199Z,98424.00
2023-03-31T14:38:02.706Z,98436.00
2023-03-31T14:40:30.915Z,98441.00
2023-03-31T14:42:59.669Z,98439.00
2023-03-31T14:45:31.678Z,98439.00
2023-03-31T14:48:13.727Z,98440.00
2023-03-31T14:50:48.054Z,98432.00
2023-03-31T14:53:23.141Z,98439.00
2023-03-31T14:55:58.684Z,98432.00
2023-03-31T14:58:35.635Z,98432.00
2023-03-31T15:01:07.094Z,98428.00
2023-03-31T15:03:36.714Z,98424.00
2023-03-31T15:06:08.177Z,98428.00
2023-03-31T15:08:37.662Z,98426.00
2023-03-31T15:11:12.985Z,98423.00
2023-03-31T15:13:52.952Z,98427.00
2023-03-31T15:16:45.333Z,98421.00
2023-03-31T15:19:25.000Z,98421.00
2023-03-31T15:21:57.121Z,98418.00
2023-03-31T15:24:25.295Z,98422.00
2023-03-31T15:27:26.344Z,98422.00
2023-03-31T15:30:00.167Z,98422.00
2023-03-31T15:32:30.572Z,98422.00
2023-03-31T15:37:54.842Z,98415.00
2023-03-31T15:40:24.283Z,98416.00
2023-03-31T15:43:25.369Z,98409.00
2023-03-31T15:45:54.750Z,98419.00
2023-03-31T15:48:28.444Z,98414.00
2023-03-31T15:51:14.688Z,98415.00
2023-03-31T15:53:48.173Z,98415.00
2023-03-31T15:56:41.961Z,98410.00
2023-03-31T15:59:41.809Z,98414.00
2023-03-31T16:02:39.588Z,98414.00
2023-03-31T16:05:37.366Z,98417.00
2023-03-31T16:08:33.316Z,98417.00
2023-03-31T16:11:04.774Z,98415.00
2023-03-31T16:13:33.881Z,98412.00
2023-03-31T16:16:01.996Z,98417.00
2023-03-31T16:18:34.737Z,98421.00
2023-03-31T16:21:09.028Z,98409.00
2023-03-31T16:23:41.365Z,98415.00
2023-03-31T16:26:09.726Z,98420.00
2023-03-31T16:28:38.506Z,98412.00
2023-03-31T16:31:07.761Z,98410.00
2023-03-31T16:33:56.444Z,98417.00
2023-03-31T16:36:24.762Z,98410.00
2023-03-31T16:38:56.403Z,98406.00
2023-03-31T16:41:24.701Z,98414.00
2023-03-31T16:43:54.359Z,98416.00
2023-03-31T16:46:26.488Z,98416.00
2023-03-31T16:48:54.829Z,98412.00
2023-03-31T16:51:26.391Z,98409.00
2023-03-31T16:53:55.520Z,98411.00
2023-03-31T16:56:24.871Z,98422.00
2023-03-31T16:58:56.517Z,98416.00
2023-03-31T17:01:24.269Z,98411.00
2023-03-31T17:03:52.339Z,98415.00
2023-03-31T17:06:20.294Z,98403.00
2023-03-31T17:08:48.458Z,98402.00
2023-03-31T17:11:16.318Z,98408.00
2023-03-31T17:13:44.930Z,98398.00
2023-03-31T17:16:24.376Z,98403.00
2023-03-31T17:19:06.837Z,98399.00
2023-03-31T17:21:34.658Z,98405.00
2023-03-31T17:24:03.274Z,98398.00
2023-03-31T17:26:31.150Z,98400.00
2023-03-31T17:29:00.822Z,98404.00
2023-03-31T17:31:38.650Z,98413.00
2023-03-31T17:34:06.994Z,98406.00
2023-03-31T17:36:34.904Z,98411.00
2023-03-31T17:39:05.117Z,98408.00
2023-03-31T17:41:33.205Z,98417.00
2023-03-31T17:44:01.390Z,98421.00
2023-03-31T17:46:29.644Z,98423.00
2023-03-31T17:48:59.220Z,98419.00
2023-03-31T17:51:27.952Z,98425.00
2023-03-31T17:53:56.482Z,98423.00
2023-03-31T17:56:25.107Z,98420.00
2023-03-31T17:58:54.153Z,98411.00
2023-03-31T18:01:22.658Z,98425.00
2023-03-31T18:03:52.877Z,98427.00
2023-03-31T18:06:20.698Z,98429.00
2023-03-31T18:08:49.026Z,98438.00
2023-03-31T18:11:17.008Z,98435.00
2023-03-31T18:13:47.950Z,98435.00
2023-03-31T18:16:16.201Z,98433.00
2023-03-31T18:18:44.217Z,98431.00
2023-03-31T18:21:13.631Z,98436.00
2023-03-31T18:23:42.347Z,98446.00
2023-03-31T18:26:12.185Z,98446.00
2023-03-31T18:28:41.168Z,98441.00
2023-03-31T18:31:10.171Z,98452.00
2023-03-31T18:33:41.932Z,98441.00
2023-03-31T18:36:20.419Z,98448.00
2023-03-31T18:38:49.410Z,98454.00
2023-03-31T18:41:20.788Z,98443.00
2023-03-31T18:43:51.026Z,98449.00
2023-03-31T18:46:19.932Z,98455.00
2023-03-31T18:48:48.067Z,98451.00
2023-03-31T18:51:16.264Z,98455.00
2023-03-31T18:53:44.008Z,98463.00
2023-03-31T18:56:14.828Z,98467.00
2023-03-31T18:58:43.911Z,98460.00
2023-03-31T19:01:14.657Z,98462.00
2023-03-31T19:03:44.064Z,98469.00
2023-03-31T19:06:12.486Z,98464.00
2023-03-31T19:08:40.711Z,98464.00
2023-03-31T19:11:17.143Z,98463.00
2023-03-31T19:13:45.244Z,98465.00
2023-03-31T19:16:13.921Z,98465.00
2023-03-31T19:18:43.851Z,98467.00
2023-03-31T19:21:12.203Z,98470.00
2023-03-31T19:23:40.381Z,98468.00
2023-03-31T19:26:08.216Z,98467.00
2023-03-31T19:28:35.987Z,98466.00
2023-03-31T19:31:07.055Z,98471.00
2023-03-31T19:33:34.821Z,98461.00
2023-03-31T19:36:03.123Z,98461.00
2023-03-31T19:38:32.728Z,98467.00
2023-03-31T19:41:00.723Z,98470.00
2023-03-31T19:43:30.298Z,98466.00
2023-03-31T19:45:59.428Z,98472.00
2023-03-31T19:48:30.414Z,98477.00
2023-03-31T19:51:00.797Z,98477.00
2023-03-31T19:53:28.645Z,98475.00
2023-03-31T19:56:05.523Z,98479.00
2023-03-31T19:58:36.049Z,98480.00
2023-03-31T20:01:08.543Z,98483.00
2023-03-31T20:03:36.902Z,98478.00
2023-03-31T20:06:11.986Z,98488.00
2023-03-31T20:08:45.566Z,98481.00
2023-03-31T20:11:15.357Z,98488.00
2023-03-31T20:13:44.132Z,98489.00
2023-03-31T20:16:23.180Z,98480.00
2023-03-31T20:19:05.227Z,98487.00
2023-03-31T20:21:35.522Z,98479.00
2023-03-31T20:24:06.574Z,98472.00
2023-03-31T20:26:36.926Z,98470.00
2023-03-31T20:29:05.121Z,98470.00
2023-03-31T20:31:37.580Z,98471.00
2023-03-31T20:34:12.590Z,98470.00
2023-03-31T20:36:42.100Z,98471.00
2023-03-31T20:39:16.463Z,98471.00
2023-03-31T20:41:45.280Z,98465.00
2023-03-31T20:44:15.638Z,98470.00
2023-03-31T20:46:44.836Z,98467.00
2023-03-31T20:49:13.090Z,98467.00
2023-03-31T20:51:42.164Z,98465.00
2023-03-31T20:54:10.309Z,98468.00
2023-03-31T20:56:40.603Z,98464.00
2023-03-31T20:59:13.886Z,98455.00
2023-03-31T21:01:42.891Z,98465.00
2023-03-31T21:04:11.977Z,98460.00
2023-03-31T21:06:42.889Z,98464.00
2023-03-31T21:09:12.479Z,98466.00
2023-03-31T21:11:40.924Z,98462.00
2023-03-31T21:14:15.835Z,98465.00
2023-03-31T21:16:44.002Z,98470.00
2023-03-31T21:19:12.189Z,98471.00
2023-03-31T21:21:43.507Z,98466.00
2023-03-31T21:24:12.837Z,98469.00
2023-03-31T21:26:44.144Z,98459.00
2023-03-31T21:29:12.216Z,98466.00
2023-03-31T21:31:42.304Z,98460.00
2023-03-31T21:34:11.178Z,98459.00
2023-03-31T21:36:39.006Z,98463.00
2023-03-31T21:39:06.862Z,98462.00
2023-03-31T21:41:34.786Z,98460.00
2023-03-31T21:44:03.549Z,98455.00
2023-03-31T21:46:33.601Z,98453.00
2023-03-31T21:49:02.933Z,98456.00
2023-03-31T21:51:31.489Z,98462.00
2023-03-31T21:53:59.534Z,98457.00
2023-03-31T21:56:32.036Z,98459.00
2023-03-31T21:59:00.626Z,98462.00
2023-03-31T22:01:28.999Z,98459.00
2023-03-31T22:03:57.579Z,98461.00
2023-03-31T22:06:28.137Z,98463.00
2023-03-31T22:08:58.880Z,98463.00
2023-03-31T22:11:28.608Z,98466.00
2023-03-31T22:13:59.802Z,98463.00
2023-03-31T22:16:27.952Z,98469.00
2023-03-31T22:18:57.896Z,98469.00
2023-03-31T22:21:40.680Z,98466.00
2023-03-31T22:24:12.369Z,98469.00
2023-03-31T22:26:40.473Z,98471.00
2023-03-31T22:29:08.279Z,98466.00
2023-03-31T22:31:36.862Z,98470.00
2023-03-31T22:34:04.902Z,98470.00
2023-03-31T22:36:32.818Z,98477.00
2023-03-31T22:39:02.410Z,98470.00
2023-03-31T22:41:31.685Z,98476.00
2023-03-31T22:43:59.654Z,98475.00
2023-03-31T22:46:27.617Z,98470.00
2023-03-31T22:48:55.901Z,98468.00
2023-03-31T22:51:23.926Z,98477.00
2023-03-31T22:53:53.177Z,98467.00
2023-03-31T22:56:23.378Z,98467.00
2023-03-31T22:58:59.100Z,98472.00
2023-03-31T23:01:27.039Z,98470.00
2023-03-31T23:03:56.101Z,98468.00
2023-03-31T23:06:24.268Z,98472.00
2023-03-31T23:08:52.695Z,98471.00
2023-03-31T23:11:20.677Z,98475.00
2023-03-31T23:13:48.730Z,98471.00
2023-03-31T23:16:24.749Z,98467.00
2023-03-31T23:18:55.045Z,98472.00
2023-03-31T23:21:28.607Z,98460.00
2023-03-31T23:24:00.838Z,98469.00
2023-03-31T23:26:30.099Z,98458.00
2023-03-31T23:29:00.197Z,98466.00
2023-03-31T23:31:31.244Z,98461.00
2023-03-31T23:34:00.995Z,98469.00
2023-03-31T23:36:29.692Z,98461.00
2023-03-31T23:39:26.839Z,98461.00
2023-03-31T23:41:59.151Z,98462.00
2023-03-31T23:44:30.973Z,98460.00
2023-03-31T23:46:59.341Z,98461.00
2023-03-31T23:49:27.208Z,98456.00
2023-03-31T23:51:55.117Z,98460.00
2023-03-31T23:54:23.044Z,98451.00
2023-03-31T23:56:53.211Z,98456.00
2023-03-31T23:59:21.037Z,98450.00
